• Join FlightAware (Why Join?)
  • Login
  • US Flag 
02:39PM EDT


 

Airport Tracker/Info


-or-


 

Live Flight TrackerFlight Track Log ✈ RPA3436 ✈ 03-Jul-2013 ✈ KCHS - KDCA

Flight Track Log - Related Links

Times and Time Zones

All times are in EDT time to prevent confusion due to time zone crossing. See the RPA3436 flight status page for this flight to view local times or setup timezone preferences in your user account.

Time Position Orientation Groundspeed Altitude Reporting Facility
EDT Latitude Longitude Course Direction KTS MPH feet Rate Location/Type
10:58AM 33.2621 -79.9243 North  Level FlightAware Approximate
10:59AM 33.3549 -79.8892 23° Northeast  Level FlightAware Approximate
11:00AM 33.4507 -79.8665 13° North  Level FlightAware Approximate
11:01AM 33.5460 -79.8393 13° North  Level FlightAware Approximate
11:02AM 33.6413 -79.8120 13° North  Level FlightAware Approximate
11:03AM 33.7371 -79.7923 17° North  Level FlightAware Approximate
11:04AM 33.8307 -79.7573 17° North  Level FlightAware Approximate
11:05AM 33.9013 -79.6800 43° Northeast  Level FlightAware Approximate
11:06AM 33.9734 -79.6000 43° Northeast  Level FlightAware Approximate
11:07AM 34.0451 -79.5196 44° Northeast  Level FlightAware Approximate
11:08AM 34.1156 -79.4374 44° Northeast  Level FlightAware Approximate
11:09AM 34.1751 -79.3499 59° Northeast  Level FlightAware Approximate
11:10AM 34.2465 -79.2702 40° Northeast  Level FlightAware Approximate
11:11AM 34.3330 -79.2148 27° Northeast  Level FlightAware Approximate
11:12AM 34.4213 -79.1636 29° Northeast  Level FlightAware Approximate
11:13AM 34.5077 -79.1077 27° Northeast  Level FlightAware Approximate
11:14AM 34.5948 -79.0532 27° Northeast  Level FlightAware Approximate
11:15AM 34.6832 -79.0018 25° Northeast  Level FlightAware Approximate
11:16AM 34.7716 -78.9504 26° Northeast  Level FlightAware Approximate
11:17AM 34.8600 -78.8990 26° Northeast  Level FlightAware Approximate
11:18AM 34.9483 -78.8474 26° Northeast  Level FlightAware Approximate
11:19AM 35.0367 -78.7957 26° Northeast  Level FlightAware Approximate
11:20AM 35.1250 -78.7439 26° Northeast  Level FlightAware Approximate
11:21AM 35.2133 -78.6920 26° Northeast  Level FlightAware Approximate
11:22AM 35.3016 -78.6399 26° Northeast  Level FlightAware Approximate
11:23AM 35.3898 -78.5878 26° Northeast  Level FlightAware Approximate
11:24AM 35.4781 -78.5355 26° Northeast  Level FlightAware Approximate
11:25AM 35.5663 -78.4832 26° Northeast  Level FlightAware Approximate
11:26AM 35.6545 -78.4308 25° Northeast  Level FlightAware Approximate
11:27AM 35.7434 -78.3801 25° Northeast  Level FlightAware Approximate
11:28AM 35.8322 -78.3293 25° Northeast  Level FlightAware Approximate
11:29AM 35.9209 -78.2778 26° Northeast  Level FlightAware Approximate
11:30AM 36.0093 -78.2257 26° Northeast  Level FlightAware Approximate
11:31AM 36.0977 -78.1734 26° Northeast  Level FlightAware Approximate
11:32AM 36.1861 -78.1210 26° Northeast  Level FlightAware Approximate
11:33AM 36.2744 -78.0685 26° Northeast  Level FlightAware Approximate
11:34AM 36.3601 -78.0109 25° Northeast  Level FlightAware Approximate
11:35AM 36.4492 -77.9600 25° Northeast  Level FlightAware Approximate
11:36AM 36.5371 -77.9063 27° Northeast  Level FlightAware Approximate
11:37AM 36.6247 -77.8518 27° Northeast  Level FlightAware Approximate
11:38AM 36.7123 -77.7971 27° Northeast  Level FlightAware Approximate
11:39AM 36.7999 -77.7423 27° Northeast  Level FlightAware Approximate
11:40AM 36.8875 -77.6874 27° Northeast  Level FlightAware Approximate
11:41AM 36.9750 -77.6324 27° Northeast  Level FlightAware Approximate
11:42AM 37.0630 -77.5785 26° Northeast  Level FlightAware Approximate
11:43AM 37.1512 -77.5249 26° Northeast  Level FlightAware Approximate
11:44AM 37.2393 -77.4713 26° Northeast  Level FlightAware Approximate
11:45AM 37.3275 -77.4175 26° Northeast  Level FlightAware Approximate
11:46AM 37.4166 -77.3667 22° Northeast  Level FlightAware Approximate
11:47AM 37.5036 -77.3158 11° North  Level FlightAware Approximate
11:48AM 37.5997 -77.2918 11° North  Level FlightAware Approximate
11:49AM 37.6958 -77.2678 11° North  Level FlightAware Approximate
11:50AM 37.7923 -77.2484 North  Level FlightAware Approximate
11:51AM 37.8893 -77.2308 North  Level FlightAware Approximate
11:52AM 37.9862 -77.2123 10° North  Level FlightAware Approximate
11:53AM 38.0827 -77.1909 10° North  Level FlightAware Approximate
11:54AM 38.1789 -77.1678 11° North  Level FlightAware Approximate
11:55AM 38.2723 -77.1500 North  Level FlightAware Approximate
11:56AM 38.3693 -77.1368 11° North  Level FlightAware Approximate
11:57AM 38.4650 -77.1129 11° North  Level FlightAware Approximate
11:58AM 38.5605 -77.0854 15° North  Level FlightAware Approximate
11:59AM 38.6558 -77.0667 North  Level FlightAware Approximate
12:00PM 38.7528 -77.0535 11° North  Level FlightAware Approximate
12:01PM 38.8495 -77.0334 North  Level FlightAware Approximate
12:02PM 38.8500 -77.0333 North  Level FlightAware Approximate